sensor_id;sensor_type;location;lat;lon;timestamp;pressure;altitude;pressure_sealevel;temperature;humidity
21877;BME280;11103;43.788;23.710;2023-02-13T00:00:28;125360.31;;;1.83;100.00
21877;BME280;11103;43.788;23.710;2023-02-13T00:02:53;124062.28;;;1.92;100.00
21877;BME280;11103;43.788;23.710;2023-02-13T00:05:18;124723.13;;;1.93;100.00
21877;BME280;11103;43.788;23.710;2023-02-13T00:07:44;129273.91;;;1.64;100.00
21877;BME280;11103;43.788;23.710;2023-02-13T00:10:10;122373.69;;;1.72;100.00
21877;BME280;11103;43.788;23.710;2023-02-13T00:12:35;120084.53;;;1.78;100.00
21877;BME280;11103;43.788;23.710;2023-02-13T00:15:01;119460.94;;;1.95;100.00
21877;BME280;11103;43.788;23.710;2023-02-13T00:17:26;122724.00;;;1.82;100.00
21877;BME280;11103;43.788;23.710;2023-02-13T00:19:52;124023.63;;;1.74;100.00
21877;BME280;11103;43.788;23.710;2023-02-13T00:22:17;122084.75;;;1.91;100.00
21877;BME280;11103;43.788;23.710;2023-02-13T00:24:43;125684.28;;;1.80;100.00
21877;BME280;11103;43.788;23.710;2023-02-13T00:27:08;124370.13;;;1.82;100.00
21877;BME280;11103;43.788;23.710;2023-02-13T00:29:34;124367.94;;;1.81;100.00
21877;BME280;11103;43.788;23.710;2023-02-13T00:31:59;122070.00;;;1.84;100.00
21877;BME280;11103;43.788;23.710;2023-02-13T00:34:26;123063.81;;;1.87;100.00
21877;BME280;11103;43.788;23.710;2023-02-13T00:36:51;127321.84;;;1.76;100.00
21877;BME280;11103;43.788;23.710;2023-02-13T00:39:17;127916.81;;;1.47;100.00
21877;BME280;11103;43.788;23.710;2023-02-13T00:41:42;120366.53;;;1.56;100.00
21877;BME280;11103;43.788;23.710;2023-02-13T00:44:08;114791.59;;;1.61;100.00
21877;BME280;11103;43.788;23.710;2023-02-13T00:46:34;111813.06;;;1.48;100.00
21877;BME280;11103;43.788;23.710;2023-02-13T00:48:59;107866.91;;;1.41;100.00
21877;BME280;11103;43.788;23.710;2023-02-13T00:51:25;105620.66;;;1.66;100.00
21877;BME280;11103;43.788;23.710;2023-02-13T00:53:50;108875.13;;;1.54;100.00
21877;BME280;11103;43.788;23.710;2023-02-13T00:56:16;111170.75;;;1.55;100.00
21877;BME280;11103;43.788;23.710;2023-02-13T00:58:41;110498.69;;;1.46;100.00
21877;BME280;11103;43.788;23.710;2023-02-13T01:01:06;108875.13;;;1.54;100.00
21877;BME280;11103;43.788;23.710;2023-02-13T01:03:32;107881.88;;;1.49;100.00
21877;BME280;11103;43.788;23.710;2023-02-13T01:05:57;107205.41;;;1.37;100.00
21877;BME280;11103;43.788;23.710;2023-02-13T01:08:23;101334.69;;;1.48;100.00
21877;BME280;11103;43.788;23.710;2023-02-13T01:10:49;101637.00;;;1.34;100.00
21877;BME280;11103;43.788;23.710;2023-02-13T01:13:16;96437.97;;;1.50;100.00
21877;BME280;11103;43.788;23.710;2023-02-13T01:15:46;98395.91;;;1.49;100.00
21877;BME280;11103;43.788;23.710;2023-02-13T01:18:14;101317.13;;;1.38;100.00
21877;BME280;11103;43.788;23.710;2023-02-13T01:20:40;101594.72;;;1.09;100.00
21877;BME280;11103;43.788;23.710;2023-02-13T01:23:06;96050.63;;;1.13;100.00
21877;BME280;11103;43.788;23.710;2023-02-13T01:25:32;92118.31;;;1.01;100.00
21877;BME280;11103;43.788;23.710;2023-02-13T01:27:57;88852.91;;;0.96;100.00
21877;BME280;11103;43.788;23.710;2023-02-13T01:30:22;83009.63;;;1.03;100.00
21877;BME280;11103;43.788;23.710;2023-02-13T01:32:48;79782.06;;;1.18;100.00
21877;BME280;11103;43.788;23.710;2023-02-13T01:35:14;80120.81;;;1.29;100.00
21877;BME280;11103;43.788;23.710;2023-02-13T01:37:40;82073.34;;;1.31;100.00
21877;BME280;11103;43.788;23.710;2023-02-13T01:40:09;83044.31;;;1.28;100.00
21877;BME280;11103;43.788;23.710;2023-02-13T01:42:35;82724.97;;;1.32;100.00
21877;BME280;11103;43.788;23.710;2023-02-13T01:45:04;83704.09;;;1.34;100.00
21877;BME280;11103;43.788;23.710;2023-02-13T01:47:52;84343.59;;;1.27;100.00
21877;BME280;11103;43.788;23.710;2023-02-13T01:50:37;82391.25;;;1.26;100.00
21877;BME280;11103;43.788;23.710;2023-02-13T01:53:11;81716.31;;;1.08;100.00
21877;BME280;11103;43.788;23.710;2023-02-13T01:55:44;80106.84;;;1.18;100.00
21877;BME280;11103;43.788;23.710;2023-02-13T01:58:15;79464.22;;;1.24;100.00
21877;BME280;11103;43.788;23.710;2023-02-13T02:00:44;79124.31;;;1.12;100.00
21877;BME280;11103;43.788;23.710;2023-02-13T02:03:18;76221.41;;;1.26;100.00
21877;BME280;11103;43.788;23.710;2023-02-13T02:05:46;76549.22;;;1.29;100.00
21877;BME280;11103;43.788;23.710;2023-02-13T02:08:14;79460.06;;;1.20;100.00
21877;BME280;11103;43.788;23.710;2023-02-13T02:10:39;81386.47;;;1.04;100.00
21877;BME280;11103;43.788;23.710;2023-02-13T02:13:21;78812.03;;;1.22;100.00
21877;BME280;11103;43.788;23.710;2023-02-13T02:15:47;79120.19;;;1.09;100.00
21877;BME280;11103;43.788;23.710;2023-02-13T02:18:19;75240.91;;;1.20;100.00
21877;BME280;11103;43.788;23.710;2023-02-13T02:21:14;73631.09;;;1.30;100.00
21877;BME280;11103;43.788;23.710;2023-02-13T02:40:35;72934.91;;;0.92;100.00
21877;BME280;11103;43.788;23.710;2023-02-13T02:46:26;67766.38;;;1.01;100.00
21877;BME280;11103;43.788;23.710;2023-02-13T02:48:57;70664.69;;;0.89;100.00
21877;BME280;11103;43.788;23.710;2023-02-13T02:52:01;69048.72;;;0.91;100.00
21877;BME280;11103;43.788;23.710;2023-02-13T02:54:51;67108.81;;;0.92;100.00
21877;BME280;11103;43.788;23.710;2023-02-13T02:57:32;66735.69;;;0.49;100.00
21877;BME280;11103;43.788;23.710;2023-02-13T03:00:20;68366.88;;;0.62;100.00
21877;BME280;11103;43.788;23.710;2023-02-13T03:03:24;65102.56;;;0.34;100.00
21877;BME280;11103;43.788;23.710;2023-02-13T03:06:22;61584.59;;;0.64;100.00
21877;BME280;11103;43.788;23.710;2023-02-13T03:09:11;60619.66;;;0.67;100.00
21877;BME280;11103;43.788;23.710;2023-02-13T03:11:56;61256.47;;;0.59;100.00
21877;BME280;11103;43.788;23.710;2023-02-13T03:14:42;61252.16;;;0.55;100.00
21877;BME280;11103;43.788;23.710;2023-02-13T03:17:12;60926.84;;;0.52;100.00
21877;BME280;11103;43.788;23.710;2023-02-13T03:23:35;55759.28;;;0.43;100.00
21877;BME280;11103;43.788;23.710;2023-02-13T03:28:50;51284.72;;;0.78;100.00
21877;BME280;11103;43.788;23.710;2023-02-13T03:31:58;53222.97;;;0.85;100.00
21877;BME280;11103;43.788;23.710;2023-02-13T03:34:40;56127.84;;;0.90;100.00
21877;BME280;11103;43.788;23.710;2023-02-13T03:37:33;59021.66;;;0.82;100.00
21877;BME280;11103;43.788;23.710;2023-02-13T03:40:45;58707.84;;;0.90;100.00
21877;BME280;11103;43.788;23.710;2023-02-13T03:43:38;60647.34;;;0.93;100.00
21877;BME280;11103;43.788;23.710;2023-02-13T03:46:06;63225.94;;;0.89;100.00
21877;BME280;11103;43.788;23.710;2023-02-13T03:48:35;64209.25;;;1.01;100.00
21877;BME280;11103;43.788;23.710;2023-02-13T03:51:36;67754.53;;;0.91;100.00
21877;BME280;11103;43.788;23.710;2023-02-13T03:54:12;68744.38;;;1.07;100.00
21877;BME280;11103;43.788;23.710;2023-02-13T03:56:40;71970.00;;;0.97;100.00
21877;BME280;11103;43.788;23.710;2023-02-13T03:59:29;73241.63;;;0.78;100.00
21877;BME280;11103;43.788;23.710;2023-02-13T04:04:49;70339.72;;;0.88;100.00
21877;BME280;11103;43.788;23.710;2023-02-13T04:07:18;72597.00;;;0.81;100.00
21877;BME280;11103;43.788;23.710;2023-02-13T04:10:03;73230.75;;;0.70;100.00
21877;BME280;11103;43.788;23.710;2023-02-13T04:17:35;73575.84;;;0.86;100.00
21877;BME280;11103;43.788;23.710;2023-02-13T04:20:02;76156.97;;;0.77;100.00
21877;BME280;11103;43.788;23.710;2023-02-13T04:22:28;75826.84;;;0.73;100.00
21877;BME280;11103;43.788;23.710;2023-02-13T04:24:54;75186.47;;;0.79;100.00
21877;BME280;11103;43.788;23.710;2023-02-13T04:27:19;76794.06;;;0.69;100.00
21877;BME280;11103;43.788;23.710;2023-02-13T04:29:45;76467.88;;;0.67;100.00
21877;BME280;11103;43.788;23.710;2023-02-13T04:32:10;77751.28;;;0.57;100.00
21877;BME280;11103;43.788;23.710;2023-02-13T04:34:36;77738.41;;;0.47;100.00
21877;BME280;11103;43.788;23.710;2023-02-13T04:37:02;74843.41;;;0.64;100.00
21877;BME280;11103;43.788;23.710;2023-02-13T04:39:27;75166.78;;;0.64;100.00
21877;BME280;11103;43.788;23.710;2023-02-13T04:41:53;75822.88;;;0.70;100.00
21877;BME280;11103;43.788;23.710;2023-02-13T04:44:18;76143.03;;;0.67;100.00
21877;BME280;11103;43.788;23.710;2023-02-13T04:46:43;75812.94;;;0.62;100.00
21877;BME280;11103;43.788;23.710;2023-02-13T04:49:09;74854.53;;;0.73;100.00
21877;BME280;11103;43.788;23.710;2023-02-13T04:51:35;75507.28;;;0.76;100.00
21877;BME280;11103;43.788;23.710;2023-02-13T04:54:00;79348.72;;;0.39;100.00
21877;BME280;11103;43.788;23.710;2023-02-13T04:56:26;77418.97;;;0.51;100.00
21877;BME280;11103;43.788;23.710;2023-02-13T04:58:51;75477.69;;;0.53;100.00
21877;BME280;11103;43.788;23.710;2023-02-13T05:01:17;75478.34;;;0.54;100.00
21877;BME280;11103;43.788;23.710;2023-02-13T05:03:43;75808.97;;;0.59;100.00
21877;BME280;11103;43.788;23.710;2023-02-13T05:06:08;76788.03;;;0.64;100.00
21877;BME280;11103;43.788;23.710;2023-02-13T05:08:34;80645.47;;;0.39;100.00
21877;BME280;11103;43.788;23.710;2023-02-13T05:10:59;80003.66;;;0.44;100.00
21877;BME280;11103;43.788;23.710;2023-02-13T05:13:25;77740.47;;;0.49;100.00
21877;BME280;11103;43.788;23.710;2023-02-13T05:15:50;80012.03;;;0.50;100.00
21877;BME280;11103;43.788;23.710;2023-02-13T05:18:17;79684.16;;;0.47;100.00
21877;BME280;11103;43.788;23.710;2023-02-13T05:20:43;78709.09;;;0.46;100.00
21877;BME280;11103;43.788;23.710;2023-02-13T05:23:12;75815.59;;;0.64;100.00
21877;BME280;11103;43.788;23.710;2023-02-13T05:25:47;76773.31;;;0.53;100.00
21877;BME280;11103;43.788;23.710;2023-02-13T05:28:13;75479.63;;;0.55;100.00
21877;BME280;11103;43.788;23.710;2023-02-13T05:30:56;72876.97;;;0.46;100.00
21877;BME280;11103;43.788;23.710;2023-02-13T05:33:22;70306.53;;;0.61;100.00
21877;BME280;11103;43.788;23.710;2023-02-13T05:35:47;68029.22;;;0.50;100.00
21877;BME280;11103;43.788;23.710;2023-02-13T05:38:13;63195.44;;;0.61;100.00
21877;BME280;11103;43.788;23.710;2023-02-13T05:40:38;59004.56;;;0.65;100.00
21877;BME280;11103;43.788;23.710;2023-02-13T05:43:04;54813.44;;;0.64;100.00
21877;BME280;11103;43.788;23.710;2023-02-13T05:45:29;50317.50;;;0.76;100.00
21877;BME280;11103;43.788;23.710;2023-02-13T05:47:54;47749.13;;;0.82;100.00
21877;BME280;11103;43.788;23.710;2023-02-13T05:50:20;45818.03;;;0.79;100.00
21877;BME280;11103;43.788;23.710;2023-02-13T05:52:45;43255.66;;;0.88;100.00
21877;BME280;11103;43.788;23.710;2023-02-13T05:55:11;41657.75;;;0.98;100.00
21877;BME280;11103;43.788;23.710;2023-02-13T05:57:36;41332.31;;;0.92;100.00
21877;BME280;11103;43.788;23.710;2023-02-13T06:00:02;38773.09;;;1.03;100.00
21877;BME280;11103;43.788;23.710;2023-02-13T06:02:28;35891.72;;;1.10;100.00
21877;BME280;11103;43.788;23.710;2023-02-13T06:04:54;34609.75;;;1.10;100.00
21877;BME280;11103;43.788;23.710;2023-02-13T06:07:19;33009.75;;;1.13;100.00
21877;BME280;11103;43.788;23.710;2023-02-13T06:09:44;31414.38;;;1.24;100.00
21877;BME280;11103;43.788;23.710;2023-02-13T06:12:10;30772.38;;;1.20;100.00
21877;BME280;11103;43.788;23.710;2023-02-13T06:14:35;30124.47;;;1.06;100.00
21877;BME280;11103;43.788;23.710;2023-02-13T06:17:00;28837.91;;;0.93;100.00
21877;BME280;11103;43.788;23.710;2023-02-13T06:19:26;25654.88;;;1.22;100.00
21877;BME280;11103;43.788;23.710;2023-02-13T06:21:51;24375.66;;;1.19;100.00
21877;BME280;11103;43.788;23.710;2023-02-13T06:24:17;24054.38;;;1.15;100.00
21877;BME280;11103;43.788;23.710;2023-02-13T06:26:42;22777.69;;;1.17;100.00
21877;BME280;11103;43.788;23.710;2023-02-13T06:29:08;20236.69;;;1.51;100.00
21877;BME280;11103;43.788;23.710;2023-02-13T06:31:34;19923.13;;;1.66;100.00
21877;BME280;11103;43.788;23.710;2023-02-13T06:34:00;20880.44;;;1.64;100.00
21877;BME280;11103;43.788;23.710;2023-02-13T06:36:25;20889.53;;;1.87;100.00
21877;BME280;11103;43.788;23.710;2023-02-13T06:38:51;22487.31;;;1.87;100.00
21877;BME280;11103;43.788;23.710;2023-02-13T06:41:16;23448.88;;;1.92;100.00
21877;BME280;11103;43.788;23.710;2023-02-13T06:43:41;24411.34;;;1.99;100.00
21877;BME280;11103;43.788;23.710;2023-02-13T06:46:07;25047.31;;;1.90;100.00
21877;BME280;11103;43.788;23.710;2023-02-13T06:48:33;26332.66;;;2.01;100.00
21877;BME280;11103;43.788;23.710;2023-02-13T06:50:58;26978.66;;;2.13;100.00
21877;BME280;11103;43.788;23.710;2023-02-13T06:53:26;28263.53;;;2.20;100.00
21877;BME280;11103;43.788;23.710;2023-02-13T06:55:52;28273.91;;;2.40;100.00
21877;BME280;11103;43.788;23.710;2023-02-13T06:58:19;29889.69;;;2.64;100.00
21877;BME280;11103;43.788;23.710;2023-02-13T07:00:45;30862.31;;;2.82;100.00
21877;BME280;11103;43.788;23.710;2023-02-13T07:03:10;33103.03;;;2.70;100.00
21877;BME280;11103;43.788;23.710;2023-02-13T07:05:39;32796.50;;;2.95;100.00
21877;BME280;11103;43.788;23.710;2023-02-13T07:08:05;35362.25;;;2.87;100.00
21877;BME280;11103;43.788;23.710;2023-02-13T07:10:31;37616.44;;;2.92;100.00
21877;BME280;11103;43.788;23.710;2023-02-13T07:12:56;38263.97;;;2.98;100.00
21877;BME280;11103;43.788;23.710;2023-02-13T07:15:22;38269.81;;;3.07;100.00
21877;BME280;11103;43.788;23.710;2023-02-13T07:17:47;37961.31;;;3.26;100.00
21877;BME280;11103;43.788;23.710;2023-02-13T07:20:13;38294.56;;;3.43;100.00
21877;BME280;11103;43.788;23.710;2023-02-13T07:22:38;39270.94;;;3.57;100.00
21877;BME280;11103;43.788;23.710;2023-02-13T07:25:04;41515.88;;;3.42;100.00
21877;BME280;11103;43.788;23.710;2023-02-13T07:27:29;40889.94;;;3.68;100.00
21877;BME280;11103;43.788;23.710;2023-02-13T07:29:57;39630.38;;;4.10;100.00
21877;BME280;11103;43.788;23.710;2023-02-13T07:32:23;43513.88;;;4.25;100.00
21877;BME280;11103;43.788;23.710;2023-02-13T07:34:49;47384.78;;;4.17;100.00
21877;BME280;11103;43.788;23.710;2023-02-13T07:37:14;49025.00;;;4.44;100.00
21877;BME280;11103;43.788;23.710;2023-02-13T07:39:40;52262.34;;;4.44;100.00
21877;BME280;11103;43.788;23.710;2023-02-13T07:42:05;52583.47;;;4.41;100.00
21877;BME280;11103;43.788;23.710;2023-02-13T07:44:31;51320.72;;;4.77;100.00
21877;BME280;11103;43.788;23.710;2023-02-13T07:46:56;59699.09;;;4.24;100.00
21877;BME280;11103;43.788;23.710;2023-02-13T07:49:22;56113.78;;;4.06;100.00
21877;BME280;11103;43.788;23.710;2023-02-13T07:51:47;50938.25;;;4.12;100.00
21877;BME280;11103;43.788;23.710;2023-02-13T07:54:13;47074.88;;;4.33;100.00
21877;BME280;11103;43.788;23.710;2023-02-13T07:56:38;45148.25;;;4.49;100.00
21877;BME280;11103;43.788;23.710;2023-02-13T07:59:03;45152.25;;;4.54;100.00
21877;BME280;11103;43.788;23.710;2023-02-13T08:01:29;47405.78;;;4.42;100.00
21877;BME280;11103;43.788;23.710;2023-02-13T08:03:54;46133.25;;;4.68;100.00
21877;BME280;11103;43.788;23.710;2023-02-13T08:06:20;46471.13;;;4.86;100.00
21877;BME280;11103;43.788;23.710;2023-02-13T08:08:46;49064.91;;;4.91;100.00
21877;BME280;11103;43.788;23.710;2023-02-13T08:11:31;48135.72;;;5.40;100.00
21877;BME280;11103;43.788;23.710;2023-02-13T08:14:16;53652.09;;;5.45;100.00
21877;BME280;11103;43.788;23.710;2023-02-13T08:16:41;60465.13;;;5.35;100.00
21877;BME280;11103;43.788;23.710;2023-02-13T08:19:06;66664.53;;;5.49;100.00
21877;BME280;11103;43.788;23.710;2023-02-13T08:21:32;80054.47;;;5.53;100.00
21877;BME280;11103;43.788;23.710;2023-02-13T08:23:59;91871.72;;;5.66;100.00
21877;BME280;11103;43.788;23.710;2023-02-13T08:26:24;104055.97;;;5.74;100.00
21877;BME280;11103;43.788;23.710;2023-02-13T08:28:50;113296.53;;;5.75;100.00
21877;BME280;11103;43.788;23.710;2023-02-13T08:31:15;120256.13;;;5.82;100.00
21877;BME280;11103;43.788;23.710;2023-02-13T08:33:41;128200.13;;;5.77;100.00
21877;BME280;11103;43.788;23.710;2023-02-13T08:36:07;137457.81;;;5.58;100.00
21877;BME280;11103;43.788;23.710;2023-02-13T08:38:33;135823.47;;;5.70;100.00
21877;BME280;11103;43.788;23.710;2023-02-13T08:40:58;137170.19;;;5.77;100.00
21877;BME280;11103;43.788;23.710;2023-02-13T08:43:24;139846.81;;;5.83;100.00
21877;BME280;11103;43.788;23.710;2023-02-13T08:45:49;144626.13;;;5.77;100.00
21877;BME280;11103;43.788;23.710;2023-02-13T08:48:15;144814.34;;;5.83;100.00
21877;BME280;11103;43.788;23.710;2023-02-13T08:50:40;147831.97;;;5.79;100.00
21877;BME280;11103;43.788;23.710;2023-02-13T08:53:06;147782.31;;;5.59;100.00
21877;BME280;11103;43.788;23.710;2023-02-13T08:55:31;147847.34;;;5.85;100.00
21877;BME280;11103;43.788;23.710;2023-02-13T08:58:03;147886.88;;;6.01;100.00
21877;BME280;11103;43.788;23.710;2023-02-13T09:00:29;147912.34;;;6.11;100.00
21877;BME280;11103;43.788;23.710;2023-02-13T09:03:02;147899.63;;;6.06;100.00
21877;BME280;11103;43.788;23.710;2023-02-13T09:05:29;147881.75;;;5.98;100.00
21877;BME280;11103;43.788;23.710;2023-02-13T09:07:59;147913.63;;;6.11;100.00
21877;BME280;11103;43.788;23.710;2023-02-13T09:10:24;147886.88;;;6.01;100.00
21877;BME280;11103;43.788;23.710;2023-02-13T09:12:53;147804.31;;;6.29;100.00
21877;BME280;11103;43.788;23.710;2023-02-13T09:15:18;147970.97;;;6.34;100.00
21877;BME280;11103;43.788;23.710;2023-02-13T09:17:44;147970.97;;;6.34;100.00
21877;BME280;11103;43.788;23.710;2023-02-13T09:20:09;148016.91;;;6.52;100.00
21877;BME280;11103;43.788;23.710;2023-02-13T09:22:38;148029.66;;;6.57;100.00
21877;BME280;11103;43.788;23.710;2023-02-13T09:25:04;148043.69;;;6.63;100.00
21877;BME280;11103;43.788;23.710;2023-02-13T09:27:29;148055.16;;;6.67;100.00
21877;BME280;11103;43.788;23.710;2023-02-13T09:29:55;148030.94;;;6.57;100.00
21877;BME280;11103;43.788;23.710;2023-02-13T09:32:20;148065.38;;;6.71;100.00
21877;BME280;11103;43.788;23.710;2023-02-13T09:34:45;148094.69;;;6.83;100.00
21877;BME280;11103;43.788;23.710;2023-02-13T09:37:11;148106.19;;;6.87;100.00
21877;BME280;11103;43.788;23.710;2023-02-13T09:39:37;148147.00;;;7.03;100.00
21877;BME280;11103;43.788;23.710;2023-02-13T09:42:05;148158.47;;;7.08;100.00
21877;BME280;11103;43.788;23.710;2023-02-13T09:44:40;148205.69;;;7.27;100.00
21877;BME280;11103;43.788;23.710;2023-02-13T09:47:17;148205.69;;;7.27;100.00
21877;BME280;11103;43.788;23.710;2023-02-13T09:49:52;148222.28;;;7.33;100.00
21877;BME280;11103;43.788;23.710;2023-02-13T09:52:18;148208.25;;;7.28;100.00
21877;BME280;11103;43.788;23.710;2023-02-13T09:54:44;148238.84;;;7.40;100.00
21877;BME280;11103;43.788;23.710;2023-02-13T09:57:19;148249.09;;;7.44;100.00
21877;BME280;11103;43.788;23.710;2023-02-13T10:00:04;148300.13;;;7.64;100.00
21877;BME280;11103;43.788;23.710;2023-02-13T10:16:26;148355.00;;;7.86;100.00
21877;BME280;11103;43.788;23.710;2023-02-13T10:18:56;148365.25;;;7.90;100.00
21877;BME280;11103;43.788;23.710;2023-02-13T10:21:29;148390.78;;;8.00;100.00
21877;BME280;11103;43.788;23.710;2023-02-13T10:24:03;148418.88;;;8.11;100.00
21877;BME280;11103;43.788;23.710;2023-02-13T10:26:33;148430.34;;;8.15;100.00
21877;BME280;11103;43.788;23.710;2023-02-13T10:32:06;148449.53;;;8.23;100.00
21877;BME280;11103;43.788;23.710;2023-02-13T10:34:45;148468.72;;;8.30;100.00
21877;BME280;11103;43.788;23.710;2023-02-13T10:37:19;148491.75;;;8.40;100.00
21877;BME280;11103;43.788;23.710;2023-02-13T10:39:51;148501.94;;;8.44;100.00
21877;BME280;11103;43.788;23.710;2023-02-13T10:42:21;148541.53;;;8.59;100.00
21877;BME280;11103;43.788;23.710;2023-02-13T10:45:15;148551.78;;;8.63;100.00
21877;BME280;11103;43.788;23.710;2023-02-13T10:56:32;148642.50;;;8.99;100.00
21877;BME280;11103;43.788;23.710;2023-02-13T11:01:32;148668.06;;;9.09;100.00
21877;BME280;11103;43.788;23.710;2023-02-13T11:04:14;148671.88;;;9.11;100.00
21877;BME280;11103;43.788;23.710;2023-02-13T11:07:01;148675.75;;;9.12;100.00
21877;BME280;11103;43.788;23.710;2023-02-13T11:09:29;148712.78;;;9.27;100.00
21877;BME280;11103;43.788;23.710;2023-02-13T11:11:58;148743.47;;;9.39;100.00
21877;BME280;11103;43.788;23.710;2023-02-13T11:14:53;148752.44;;;9.42;100.00
21877;BME280;11103;43.788;23.710;2023-02-13T11:17:21;148772.91;;;9.50;100.00
21877;BME280;11103;43.788;23.710;2023-02-13T11:19:49;148801.03;;;9.62;100.00
21877;BME280;11103;43.788;23.710;2023-02-13T11:22:44;148824.03;;;9.71;100.00
21877;BME280;11103;43.788;23.710;2023-02-13T11:25:26;148807.44;;;9.64;100.00
21877;BME280;11103;43.788;23.710;2023-02-13T11:28:14;148821.50;;;9.70;100.00
21877;BME280;11103;43.788;23.710;2023-02-13T11:30:42;148829.19;;;9.73;100.00
21877;BME280;11103;43.788;23.710;2023-02-13T11:35:43;148820.22;;;9.69;100.00
21877;BME280;11103;43.788;23.710;2023-02-13T11:40:41;148898.25;;;10.00;100.00
21877;BME280;11103;43.788;23.710;2023-02-13T11:43:29;148890.56;;;9.97;100.00
21877;BME280;11103;43.788;23.710;2023-02-13T11:46:07;148902.06;;;10.01;100.00
21877;BME280;11103;43.788;23.710;2023-02-13T11:48:34;148885.41;;;9.95;100.00
21877;BME280;11103;43.788;23.710;2023-02-13T11:51:00;148905.88;;;10.03;100.00
21877;BME280;11103;43.788;23.710;2023-02-13T11:53:36;148928.91;;;10.12;100.00
21877;BME280;11103;43.788;23.710;2023-02-13T11:56:14;148917.44;;;10.07;100.00
21877;BME280;11103;43.788;23.710;2023-02-13T11:58:40;148858.56;;;9.84;100.00
21877;BME280;11103;43.788;23.710;2023-02-13T12:04:14;148985.28;;;10.34;100.00
21877;BME280;11103;43.788;23.710;2023-02-13T12:07:02;149001.94;;;10.41;96.25
21877;BME280;11103;43.788;23.710;2023-02-13T12:09:29;148985.28;;;10.34;96.51
21877;BME280;11103;43.788;23.710;2023-02-13T12:12:00;149026.22;;;10.50;96.08
21877;BME280;11103;43.788;23.710;2023-02-13T12:14:32;149035.19;;;10.54;96.98
21877;BME280;11103;43.788;23.710;2023-02-13T12:17:03;149049.28;;;10.59;93.65
21877;BME280;11103;43.788;23.710;2023-02-13T12:19:40;149053.09;;;10.61;90.82
21877;BME280;11103;43.788;23.710;2023-02-13T12:30:13;149021.13;;;10.48;83.76
21877;BME280;11103;43.788;23.710;2023-02-13T12:32:50;149031.31;;;10.52;85.73
21877;BME280;11103;43.788;23.710;2023-02-13T12:35:37;149039.00;;;10.55;88.94
21877;BME280;11103;43.788;23.710;2023-02-13T12:38:18;149091.53;;;10.76;91.17
21877;BME280;11103;43.788;23.710;2023-02-13T12:41:10;149110.72;;;10.84;85.17
21877;BME280;11103;43.788;23.710;2023-02-13T12:52:01;149108.13;;;10.83;81.79
21877;BME280;11103;43.788;23.710;2023-02-13T13:14:23;149122.22;;;10.88;78.71
21877;BME280;11103;43.788;23.710;2023-02-13T13:17:07;149168.28;;;11.06;79.36
21877;BME280;11103;43.788;23.710;2023-02-13T13:19:51;149188.78;;;11.14;81.34
21877;BME280;11103;43.788;23.710;2023-02-13T13:27:28;149249.00;;;11.38;80.78
21877;BME280;11103;43.788;23.710;2023-02-13T13:30:03;149222.13;;;11.27;79.78
21877;BME280;11103;43.788;23.710;2023-02-13T13:32:29;149220.81;;;11.27;80.14
21877;BME280;11103;43.788;23.710;2023-02-13T13:34:57;149220.81;;;11.27;78.87
21877;BME280;11103;43.788;23.710;2023-02-13T13:37:44;149250.28;;;11.39;80.09
21877;BME280;11103;43.788;23.710;2023-02-13T13:43:24;149314.31;;;11.64;77.20
21877;BME280;11103;43.788;23.710;2023-02-13T13:51:23;149242.59;;;11.35;72.80
21877;BME280;11103;43.788;23.710;2023-02-13T14:05:00;149243.84;;;11.36;73.06
21877;BME280;11103;43.788;23.710;2023-02-13T14:07:33;149292.53;;;11.55;74.37
21877;BME280;11103;43.788;23.710;2023-02-13T14:09:58;149184.97;;;11.13;71.65
21877;BME280;11103;43.788;23.710;2023-02-13T14:14:51;149278.44;;;11.50;74.40
21877;BME280;11103;43.788;23.710;2023-02-13T14:22:55;149311.78;;;11.63;75.62
21877;BME280;11103;43.788;23.710;2023-02-13T14:25:22;149242.59;;;11.35;73.28
21877;BME280;11103;43.788;23.710;2023-02-13T14:27:57;149293.81;;;11.56;74.31
21877;BME280;11103;43.788;23.710;2023-02-13T14:32:49;149255.41;;;11.41;74.65
21877;BME280;11103;43.788;23.710;2023-02-13T14:35:22;149243.84;;;11.36;74.45
21877;BME280;11103;43.788;23.710;2023-02-13T14:38:22;149240.03;;;11.34;74.39
21877;BME280;11103;43.788;23.710;2023-02-13T14:40:50;149236.19;;;11.33;75.14
21877;BME280;11103;43.788;23.710;2023-02-13T14:43:36;149227.22;;;11.29;75.65
21877;BME280;11103;43.788;23.710;2023-02-13T14:48:52;149113.25;;;10.85;77.27
21877;BME280;11103;43.788;23.710;2023-02-13T14:51:33;149108.13;;;10.83;78.57
21877;BME280;11103;43.788;23.710;2023-02-13T14:56:30;149015.97;;;10.46;80.91
21877;BME280;11103;43.788;23.710;2023-02-13T14:59:01;148989.09;;;10.36;81.50
21877;BME280;11103;43.788;23.710;2023-02-13T15:01:39;148973.78;;;10.30;82.86
21877;BME280;11103;43.788;23.710;2023-02-13T15:04:14;148939.22;;;10.16;84.53
21877;BME280;11103;43.788;23.710;2023-02-13T15:06:42;148875.22;;;9.91;86.90
21877;BME280;11103;43.788;23.710;2023-02-13T15:09:35;148848.34;;;9.80;88.37
21877;BME280;11103;43.788;23.710;2023-02-13T15:12:04;148737.09;;;9.36;90.84
21877;BME280;11103;43.788;23.710;2023-02-13T15:14:34;148760.13;;;9.45;93.94
21877;BME280;11103;43.788;23.710;2023-02-13T15:17:06;148726.84;;;9.32;96.57
21877;BME280;11103;43.788;23.710;2023-02-13T15:19:41;148673.16;;;9.11;99.23
21877;BME280;11103;43.788;23.710;2023-02-13T15:22:20;148646.31;;;9.01;100.00
21877;BME280;11103;43.788;23.710;2023-02-13T15:24:51;148582.41;;;8.75;100.00
21877;BME280;11103;43.788;23.710;2023-02-13T15:27:26;148536.44;;;8.57;100.00
21877;BME280;11103;43.788;23.710;2023-02-13T15:29:54;148472.53;;;8.32;100.00